Time;durP1;ratioP1;P1;durP2;ratioP2;P2;SDS_P1;SDS_P2;PMS_P1;PMS_P2;Temp;Humidity;BMP_temperature;BMP_pressure;BME280_temperature;BME280_humidity;BME280_pressure;Samples;Min_cycle;Max_cycle;Signal;HPM_P1;HPM_P2
2021/09/04 00:00:53;;;;;;;31.50;26.42;;;13.70;99.90;;;;;;2088873;28;20125;-67
2021/09/04 00:01:53;;;;;;;32.80;26.50;;;13.70;99.90;;;;;;2089496;28;20025;-68
2021/09/04 00:02:54;;;;;;;30.67;26.42;;;13.70;99.90;;;;;;2089343;28;20482;-67
2021/09/04 00:03:54;;;;;;;32.22;26.83;;;13.70;99.90;;;;;;2089572;28;20031;-68
2021/09/04 00:04:55;;;;;;;36.10;28.50;;;13.70;99.90;;;;;;2089376;28;20021;-68
2021/09/04 00:05:55;;;;;;;35.22;29.02;;;13.70;99.90;;;;;;2089234;28;20075;-68
2021/09/04 00:06:56;;;;;;;38.13;30.05;;;13.70;99.90;;;;;;2088916;28;20025;-68
2021/09/04 00:07:57;;;;;;;35.58;29.95;;;13.70;99.90;;;;;;2089378;28;20039;-67
2021/09/04 00:09:01;;;;;;;34.13;28.60;;;13.70;99.90;;;;;;2089344;28;20131;-68
2021/09/04 00:10:02;;;;;;;35.83;28.10;;;13.60;99.90;;;;;;2089356;28;20013;-67
2021/09/04 00:11:04;;;;;;;34.95;27.77;;;13.60;99.90;;;;;;2088970;28;20023;-68
2021/09/04 00:12:06;;;;;;;34.13;27.63;;;13.60;99.90;;;;;;2089288;28;20064;-68
2021/09/04 00:13:07;;;;;;;37.38;30.17;;;13.60;99.90;;;;;;2089205;28;20083;-68
2021/09/04 00:14:09;;;;;;;36.80;29.55;;;13.60;99.90;;;;;;2089405;28;20029;-68
2021/09/04 00:15:11;;;;;;;36.65;28.80;;;13.60;99.90;;;;;;2089337;28;20108;-68
2021/09/04 00:16:16;;;;;;;36.80;29.25;;;13.60;99.90;;;;;;2089387;28;20033;-68
2021/09/04 00:17:16;;;;;;;36.83;29.95;;;13.60;99.90;;;;;;2088790;28;20126;-67
2021/09/04 00:18:17;;;;;;;37.05;29.88;;;13.50;99.90;;;;;;2089196;28;20087;-68
2021/09/04 00:19:17;;;;;;;35.95;29.90;;;13.50;99.90;;;;;;2089908;28;20465;-68
2021/09/04 00:20:18;;;;;;;38.10;30.20;;;13.50;99.90;;;;;;2089363;28;20596;-68
2021/09/04 00:21:19;;;;;;;37.83;30.15;;;13.50;99.90;;;;;;2080615;28;20033;-68
2021/09/04 00:22:19;;;;;;;37.00;29.77;;;13.50;99.90;;;;;;2080633;28;20064;-68
2021/09/04 00:23:20;;;;;;;34.67;29.05;;;13.50;99.90;;;;;;2089301;28;20171;-68
2021/09/04 00:24:21;;;;;;;36.78;29.50;;;13.50;99.90;;;;;;2080458;28;20116;-68
2021/09/04 00:25:21;;;;;;;34.40;28.30;;;13.40;99.90;;;;;;2079817;28;20041;-68
2021/09/04 00:26:24;;;;;;;36.90;29.77;;;13.40;99.90;;;;;;2089227;28;20036;-69
2021/09/04 00:27:25;;;;;;;35.38;28.67;;;13.40;99.90;;;;;;2088675;28;20041;-69
2021/09/04 00:28:25;;;;;;;37.08;28.98;;;13.40;99.90;;;;;;2089471;28;20025;-68
2021/09/04 00:29:26;;;;;;;35.85;27.27;;;13.40;99.90;;;;;;2089301;28;20056;-68
2021/09/04 00:30:27;;;;;;;36.47;28.63;;;13.40;99.90;;;;;;2088621;28;20063;-68
2021/09/04 00:31:27;;;;;;;37.55;29.15;;;13.40;99.90;;;;;;2089361;28;20456;-68
2021/09/04 00:32:28;;;;;;;36.25;28.90;;;13.40;99.90;;;;;;2089345;28;20043;-68
2021/09/04 00:33:29;;;;;;;34.05;28.05;;;13.40;99.90;;;;;;2080454;28;20114;-68
2021/09/04 00:34:29;;;;;;;35.67;29.13;;;13.30;99.90;;;;;;2080333;28;20040;-68
2021/09/04 00:35:30;;;;;;;35.95;28.88;;;13.30;99.90;;;;;;2089221;28;20083;-68
2021/09/04 00:36:30;;;;;;;39.83;30.35;;;13.30;99.90;;;;;;2088996;28;20021;-69
2021/09/04 00:37:31;;;;;;;35.83;28.25;;;13.30;99.90;;;;;;2079770;28;20509;-68
2021/09/04 00:38:31;;;;;;;35.75;29.08;;;13.30;99.90;;;;;;2080255;28;20033;-68
2021/09/04 00:39:32;;;;;;;34.47;27.65;;;13.30;99.90;;;;;;2089110;28;20040;-68
2021/09/04 00:40:33;;;;;;;35.42;28.02;;;13.30;99.90;;;;;;2088730;28;20079;-68
2021/09/04 00:41:37;;;;;;;36.63;29.67;;;13.30;99.90;;;;;;2089095;28;20053;-68
2021/09/04 00:42:37;;;;;;;35.00;28.27;;;13.30;99.90;;;;;;2071934;28;20037;-68
2021/09/04 00:43:38;;;;;;;35.63;27.73;;;13.30;99.90;;;;;;2072064;28;20042;-68
2021/09/04 00:44:39;;;;;;;34.50;28.48;;;13.30;99.90;;;;;;2080301;28;20532;-68
2021/09/04 00:45:39;;;;;;;34.28;27.48;;;13.30;99.90;;;;;;2080162;28;20546;-68
2021/09/04 00:46:40;;;;;;;34.38;27.77;;;13.30;99.90;;;;;;2080187;28;20031;-67
2021/09/04 00:47:57;;;;;;;34.20;27.13;;;13.20;99.90;;;;;;2079719;28;20083;-67
2021/09/04 00:48:58;;;;;;;35.80;27.45;;;13.20;99.90;;;;;;2089064;28;20385;-67
2021/09/04 00:49:59;;;;;;;33.50;28.17;;;13.20;99.90;;;;;;2088908;28;20485;-68
2021/09/04 00:50:59;;;;;;;35.67;29.55;;;13.20;99.90;;;;;;2088602;28;20045;-68
2021/09/04 00:52:01;;;;;;;38.75;29.60;;;13.20;99.90;;;;;;2088994;28;20374;-68
2021/09/04 00:53:03;;;;;;;36.33;29.33;;;13.20;99.90;;;;;;2089020;28;20029;-68
2021/09/04 00:54:05;;;;;;;35.83;28.88;;;13.20;99.90;;;;;;2088793;28;20112;-68
2021/09/04 00:55:06;;;;;;;36.45;28.45;;;13.20;99.90;;;;;;2089004;28;20025;-69
2021/09/04 00:56:12;;;;;;;35.65;28.83;;;13.10;99.90;;;;;;2080052;28;20032;-68
2021/09/04 00:57:14;;;;;;;34.20;28.00;;;13.10;99.90;;;;;;2080360;28;20030;-68
2021/09/04 00:58:14;;;;;;;33.53;27.65;;;13.10;99.90;;;;;;2072158;28;20026;-67
2021/09/04 00:59:15;;;;;;;35.75;28.25;;;13.10;99.90;;;;;;2072148;28;20026;-67
2021/09/04 01:00:17;;;;;;;35.47;28.65;;;13.10;99.90;;;;;;2088772;28;20036;-68
2021/09/04 01:01:20;;;;;;;36.80;29.15;;;13.10;99.90;;;;;;2088853;28;20036;-68
2021/09/04 01:02:20;;;;;;;35.83;28.25;;;13.10;99.90;;;;;;2080241;28;20037;-68
2021/09/04 01:03:21;;;;;;;34.03;27.65;;;13.10;99.90;;;;;;2080188;28;20592;-68
2021/09/04 01:04:22;;;;;;;32.00;26.88;;;13.10;99.90;;;;;;2080269;28;20120;-68
2021/09/04 01:05:24;;;;;;;32.83;27.48;;;13.10;99.90;;;;;;2080248;28;20024;-68
2021/09/04 01:06:25;;;;;;;33.67;27.92;;;13.10;99.90;;;;;;2088679;28;20029;-67
2021/09/04 01:07:26;;;;;;;34.67;27.52;;;13.00;99.90;;;;;;2088319;28;20021;-67
2021/09/04 01:08:27;;;;;;;36.42;28.30;;;13.00;99.90;;;;;;2088829;28;20033;-66
2021/09/04 01:09:28;;;;;;;34.53;28.17;;;13.10;99.90;;;;;;2088848;28;20036;-67
2021/09/04 01:10:31;;;;;;;34.47;27.88;;;13.10;99.90;;;;;;2088536;28;20017;-67
2021/09/04 01:11:32;;;;;;;33.53;27.48;;;13.00;99.90;;;;;;2088795;28;20397;-67
2021/09/04 01:12:35;;;;;;;37.45;28.70;;;13.00;99.90;;;;;;2088864;28;20082;-68
2021/09/04 01:13:38;;;;;;;32.83;27.42;;;13.00;99.90;;;;;;2088869;28;20056;-67
2021/09/04 01:14:39;;;;;;;35.83;28.25;;;13.00;99.90;;;;;;2088929;28;20029;-67
2021/09/04 01:15:42;;;;;;;34.72;28.42;;;13.00;99.90;;;;;;2088982;28;20044;-67
2021/09/04 01:16:43;;;;;;;33.88;28.23;;;13.00;99.90;;;;;;2079811;28;20063;-67
2021/09/04 01:17:44;;;;;;;35.67;28.25;;;12.90;99.90;;;;;;2079880;28;20075;-67
2021/09/04 01:18:45;;;;;;;36.20;28.00;;;13.00;99.90;;;;;;2088794;28;20600;-67
2021/09/04 01:19:45;;;;;;;34.38;28.05;;;13.00;99.90;;;;;;2079734;28;20091;-67
2021/09/04 01:20:46;;;;;;;37.55;29.52;;;12.90;99.90;;;;;;2079676;28;20171;-68
2021/09/04 01:21:47;;;;;;;34.78;28.13;;;13.00;99.90;;;;;;2080169;28;20036;-68
2021/09/04 01:22:47;;;;;;;34.55;27.75;;;12.90;99.90;;;;;;2080253;28;20029;-68
2021/09/04 01:23:48;;;;;;;37.53;29.40;;;12.90;99.90;;;;;;2088979;28;20505;-68
2021/09/04 01:24:50;;;;;;;35.83;29.20;;;12.90;99.90;;;;;;2080086;28;20509;-68
2021/09/04 01:25:53;;;;;;;36.42;29.23;;;12.90;99.90;;;;;;2080176;28;20402;-68
2021/09/04 01:26:54;;;;;;;38.47;29.30;;;12.90;99.90;;;;;;2088236;28;20031;-68
2021/09/04 01:28:03;;;;;;;34.83;28.08;;;12.80;99.90;;;;;;2088700;28;20040;-67
2021/09/04 01:29:04;;;;;;;32.33;27.25;;;12.90;99.90;;;;;;2088824;28;20021;-67
2021/09/04 01:30:06;;;;;;;33.80;26.83;;;12.90;99.90;;;;;;2079935;28;20031;-67
2021/09/04 01:31:07;;;;;;;36.53;27.90;;;12.90;99.90;;;;;;2079741;28;20105;-68
2021/09/04 01:32:08;;;;;;;36.05;27.27;;;12.80;99.90;;;;;;2088558;28;20401;-67
2021/09/04 01:33:10;;;;;;;33.05;26.73;;;12.80;99.90;;;;;;2088459;28;20124;-67
2021/09/04 01:34:11;;;;;;;32.25;26.63;;;12.80;99.90;;;;;;2088636;28;20074;-67
2021/09/04 01:35:13;;;;;;;32.78;26.23;;;12.80;99.90;;;;;;2088500;28;20036;-67
2021/09/04 01:36:29;;;;;;;31.33;25.40;;;12.80;99.90;;;;;;2079815;28;20041;-67
2021/09/04 01:37:30;;;;;;;32.40;26.30;;;12.80;99.90;;;;;;2081362;28;20029;-67
2021/09/04 01:38:30;;;;;;;34.25;27.00;;;12.80;99.90;;;;;;2088646;28;20337;-68
2021/09/04 01:39:31;;;;;;;34.00;26.52;;;12.80;99.90;;;;;;2088697;28;20021;-67
2021/09/04 01:40:32;;;;;;;33.45;27.38;;;12.80;99.90;;;;;;2088365;28;20520;-67
2021/09/04 01:41:33;;;;;;;32.92;27.10;;;12.80;99.90;;;;;;2088540;28;20107;-67
2021/09/04 01:42:34;;;;;;;32.60;26.75;;;12.80;99.90;;;;;;2079756;28;20490;-67
2021/09/04 01:43:34;;;;;;;33.38;27.17;;;12.70;99.90;;;;;;2079772;28;20081;-67
2021/09/04 01:44:36;;;;;;;33.22;27.40;;;12.80;99.90;;;;;;2088643;28;20023;-67
2021/09/04 01:45:37;;;;;;;33.75;27.73;;;12.70;99.90;;;;;;2088654;28;20416;-67
2021/09/04 01:46:37;;;;;;;35.40;27.73;;;12.70;99.90;;;;;;2088639;28;20104;-68
2021/09/04 01:47:38;;;;;;;34.65;27.02;;;12.70;99.90;;;;;;2087961;28;20047;-68
2021/09/04 01:48:39;;;;;;;33.22;27.67;;;12.70;99.90;;;;;;2088605;28;20056;-68
2021/09/04 01:49:39;;;;;;;35.13;27.80;;;12.70;99.90;;;;;;2088654;28;20043;-68
2021/09/04 01:50:40;;;;;;;32.83;26.95;;;12.70;99.90;;;;;;2088329;28;20021;-67
2021/09/04 01:51:40;;;;;;;32.58;25.80;;;12.70;99.90;;;;;;2088572;28;20481;-67
2021/09/04 01:52:44;;;;;;;33.85;26.40;;;12.70;99.90;;;;;;2088704;28;20025;-68
2021/09/04 01:53:45;;;;;;;30.33;25.33;;;12.70;99.90;;;;;;2079874;28;20033;-68
2021/09/04 01:54:45;;;;;;;32.22;26.15;;;12.70;99.90;;;;;;2079996;28;20041;-68
2021/09/04 01:55:46;;;;;;;31.10;25.73;;;12.70;99.90;;;;;;2088760;28;20029;-68
2021/09/04 01:56:46;;;;;;;29.45;24.85;;;12.60;99.90;;;;;;2088289;28;20029;-68
2021/09/04 01:57:47;;;;;;;31.92;26.20;;;12.70;99.90;;;;;;2088353;28;20033;-68
2021/09/04 01:58:48;;;;;;;31.15;25.30;;;12.70;99.90;;;;;;2088558;28;20060;-68
2021/09/04 01:59:49;;;;;;;31.33;25.23;;;12.70;99.90;;;;;;2088570;28;20033;-68
2021/09/04 02:00:49;;;;;;;32.00;25.55;;;12.60;99.90;;;;;;2088135;28;20147;-68
2021/09/04 02:01:50;;;;;;;30.55;25.10;;;12.70;99.90;;;;;;2088633;28;20040;-68
2021/09/04 02:02:50;;;;;;;31.60;25.02;;;12.60;99.90;;;;;;2088570;28;20413;-68
2021/09/04 02:03:51;;;;;;;31.00;24.48;;;12.70;99.90;;;;;;2088621;28;20605;-68
2021/09/04 02:04:51;;;;;;;30.95;25.05;;;12.70;99.90;;;;;;2088542;28;20029;-67
2021/09/04 02:05:52;;;;;;;30.80;24.42;;;12.70;99.90;;;;;;2088636;28;20029;-67
2021/09/04 02:06:52;;;;;;;30.20;24.40;;;12.70;99.90;;;;;;2088090;28;20064;-67
2021/09/04 02:07:53;;;;;;;30.65;24.83;;;12.70;99.90;;;;;;2079688;28;20032;-67
2021/09/04 02:08:54;;;;;;;30.10;24.42;;;12.70;99.90;;;;;;2079661;28;20089;-67
2021/09/04 02:09:54;;;;;;;31.17;24.33;;;12.70;99.90;;;;;;2088623;28;20108;-67
2021/09/04 02:10:55;;;;;;;29.35;24.02;;;12.70;99.90;;;;;;2087981;28;20037;-67
2021/09/04 02:11:56;;;;;;;31.17;25.52;;;12.70;99.90;;;;;;2088465;28;20029;-67
2021/09/04 02:12:56;;;;;;;31.00;24.65;;;12.70;99.90;;;;;;2088639;28;20025;-67
2021/09/04 02:13:57;;;;;;;31.73;24.23;;;12.70;99.90;;;;;;2088476;28;20029;-67
2021/09/04 02:14:58;;;;;;;30.75;24.83;;;12.70;99.90;;;;;;2088481;28;20024;-67
2021/09/04 02:15:58;;;;;;;29.70;23.77;;;12.60;99.90;;;;;;2088563;28;20024;-67
2021/09/04 02:17:00;;;;;;;28.58;23.75;;;12.60;99.90;;;;;;2088035;28;20060;-67
2021/09/04 02:18:01;;;;;;;31.35;24.13;;;12.60;99.90;;;;;;2088562;28;20025;-67
2021/09/04 02:19:03;;;;;;;29.73;24.00;;;12.60;99.90;;;;;;2088666;28;20025;-67
2021/09/04 02:20:05;;;;;;;30.77;24.58;;;12.60;99.90;;;;;;2090291;28;20044;-67
2021/09/04 02:21:06;;;;;;;28.75;23.67;;;12.60;99.90;;;;;;2079529;28;20026;-67
2021/09/04 02:22:06;;;;;;;28.58;23.40;;;12.60;99.90;;;;;;2079845;28;20072;-67
2021/09/04 02:23:07;;;;;;;30.45;23.85;;;12.60;99.90;;;;;;2088711;28;20492;-67
2021/09/04 02:24:08;;;;;;;28.92;23.38;;;12.60;99.90;;;;;;2088664;28;20040;-67
2021/09/04 02:25:09;;;;;;;29.70;23.58;;;12.60;99.90;;;;;;2088740;28;20389;-68
2021/09/04 02:26:10;;;;;;;30.17;23.95;;;12.60;99.90;;;;;;2088817;28;20025;-68
2021/09/04 02:27:12;;;;;;;30.73;24.45;;;12.60;99.90;;;;;;2088757;28;20769;-68
2021/09/04 02:28:14;;;;;;;29.35;24.33;;;12.60;99.90;;;;;;2088856;28;20049;-68
2021/09/04 02:29:17;;;;;;;30.95;25.55;;;12.60;99.90;;;;;;2088730;28;20017;-67
2021/09/04 02:30:18;;;;;;;32.45;25.23;;;12.60;99.90;;;;;;2088565;28;20021;-68
2021/09/04 02:31:23;;;;;;;30.73;24.55;;;12.60;99.90;;;;;;2088571;28;20029;-68
2021/09/04 02:32:24;;;;;;;32.17;23.75;;;12.50;99.90;;;;;;2088796;28;20136;-68
2021/09/04 02:33:25;;;;;;;30.02;24.35;;;12.50;99.90;;;;;;2088689;28;20033;-68
2021/09/04 02:34:27;;;;;;;30.55;24.13;;;12.50;99.90;;;;;;2088559;28;20025;-68
2021/09/04 02:35:29;;;;;;;31.48;24.10;;;12.50;99.90;;;;;;2088918;28;20136;-68
2021/09/04 02:36:30;;;;;;;29.38;24.20;;;12.50;99.90;;;;;;2088578;28;20044;-68
2021/09/04 02:37:31;;;;;;;29.27;23.23;;;12.50;99.90;;;;;;2088082;28;20334;-68
2021/09/04 02:38:32;;;;;;;31.38;24.20;;;12.50;99.90;;;;;;2088544;28;20460;-68
2021/09/04 02:39:33;;;;;;;28.90;23.23;;;12.40;99.90;;;;;;2088412;28;20032;-68
2021/09/04 02:40:34;;;;;;;28.85;23.30;;;12.40;99.90;;;;;;2088248;28;20060;-68
2021/09/04 02:41:35;;;;;;;28.38;22.75;;;12.50;99.90;;;;;;2088446;28;20025;-68
2021/09/04 02:42:36;;;;;;;29.17;23.35;;;12.50;99.90;;;;;;2088503;28;20025;-68
2021/09/04 02:43:38;;;;;;;31.15;23.63;;;12.50;99.90;;;;;;2088456;28;20485;-68
2021/09/04 02:44:39;;;;;;;29.88;23.15;;;12.40;99.90;;;;;;2088395;28;20107;-68
2021/09/04 02:45:40;;;;;;;28.25;23.40;;;12.40;99.90;;;;;;2079278;28;20021;-68
2021/09/04 02:46:40;;;;;;;30.25;24.00;;;12.40;99.90;;;;;;2079643;28;20661;-68
2021/09/04 02:47:42;;;;;;;30.27;23.73;;;12.40;99.90;;;;;;2087955;28;20104;-68
2021/09/04 02:48:43;;;;;;;29.38;24.48;;;12.40;99.90;;;;;;2089735;28;20438;-68
2021/09/04 02:49:44;;;;;;;30.98;24.15;;;12.40;99.90;;;;;;2081247;28;20033;-68
2021/09/04 02:50:46;;;;;;;31.05;24.33;;;12.40;99.90;;;;;;2081395;28;20045;-68
2021/09/04 02:51:47;;;;;;;30.65;23.80;;;12.40;99.90;;;;;;2090182;28;20764;-68
2021/09/04 02:52:48;;;;;;;31.25;24.80;;;12.40;99.90;;;;;;2081430;28;20052;-68
2021/09/04 02:53:49;;;;;;;30.95;24.13;;;12.40;99.90;;;;;;2081279;28;20029;-68
2021/09/04 02:54:50;;;;;;;29.75;23.83;;;12.40;99.90;;;;;;2089994;28;20033;-68
2021/09/04 02:55:51;;;;;;;30.27;23.85;;;12.40;99.90;;;;;;2089783;28;20648;-68
2021/09/04 02:56:51;;;;;;;30.63;24.10;;;12.30;99.90;;;;;;2089440;28;20047;-68
2021/09/04 02:57:52;;;;;;;29.40;23.83;;;12.40;99.90;;;;;;2089925;28;20025;-67
2021/09/04 02:58:53;;;;;;;29.02;23.30;;;12.30;99.90;;;;;;2089895;28;20025;-68
2021/09/04 02:59:55;;;;;;;30.17;24.58;;;12.30;99.90;;;;;;2081034;28;20792;-68
2021/09/04 03:00:55;;;;;;;30.70;24.02;;;12.30;99.90;;;;;;2080568;28;20099;-68
2021/09/04 03:01:56;;;;;;;30.70;24.05;;;12.30;99.90;;;;;;2089834;28;20040;-68
2021/09/04 03:02:57;;;;;;;29.35;24.30;;;12.30;99.90;;;;;;2090031;28;20033;-69
2021/09/04 03:03:57;;;;;;;29.95;24.40;;;12.30;99.90;;;;;;2089893;28;20096;-69
2021/09/04 03:04:58;;;;;;;31.85;25.08;;;12.30;99.90;;;;;;2081038;28;20449;-69
2021/09/04 03:06:02;;;;;;;30.10;24.63;;;12.20;99.90;;;;;;2080983;28;20018;-69
2021/09/04 03:07:02;;;;;;;30.35;23.98;;;12.20;99.90;;;;;;2080261;28;20017;-69
2021/09/04 03:08:03;;;;;;;30.13;25.05;;;12.20;99.90;;;;;;2081048;28;20127;-69
2021/09/04 03:09:05;;;;;;;31.40;25.77;;;12.20;99.90;;;;;;2080912;28;20052;-69
2021/09/04 03:10:06;;;;;;;32.33;25.85;;;12.20;99.90;;;;;;2080927;28;20032;-69
2021/09/04 03:11:07;;;;;;;31.13;25.80;;;12.20;99.90;;;;;;2089412;28;20044;-68
2021/09/04 03:12:09;;;;;;;33.50;25.98;;;12.20;99.90;;;;;;2089738;28;20021;-68
2021/09/04 03:13:10;;;;;;;31.55;25.50;;;12.20;99.90;;;;;;2080919;28;20033;-68
2021/09/04 03:14:10;;;;;;;31.67;25.73;;;12.10;99.90;;;;;;2080942;28;20029;-69
2021/09/04 03:15:11;;;;;;;31.35;25.77;;;12.10;99.90;;;;;;2089821;28;20052;-68
2021/09/04 03:16:12;;;;;;;30.95;24.70;;;12.10;99.90;;;;;;2089707;28;20021;-69
2021/09/04 03:17:13;;;;;;;33.00;26.48;;;12.10;99.90;;;;;;2089078;28;20050;-69
2021/09/04 03:18:15;;;;;;;35.72;28.05;;;12.10;99.90;;;;;;2089690;28;20032;-68
2021/09/04 03:19:16;;;;;;;35.08;27.27;;;12.10;99.90;;;;;;2080897;28;20033;-68
2021/09/04 03:20:16;;;;;;;32.92;26.27;;;12.10;99.90;;;;;;2080533;28;20120;-69
2021/09/04 03:21:17;;;;;;;32.33;26.13;;;12.10;99.90;;;;;;2080816;28;20136;-69
2021/09/04 03:22:20;;;;;;;33.45;26.38;;;12.10;99.90;;;;;;2080981;28;20502;-69
2021/09/04 03:23:21;;;;;;;33.78;26.65;;;12.10;99.90;;;;;;2072588;28;20407;-69
2021/09/04 03:24:23;;;;;;;30.88;24.33;;;12.00;99.90;;;;;;2073132;28;20057;-69
2021/09/04 03:25:24;;;;;;;31.92;25.13;;;12.00;99.90;;;;;;2081193;28;20417;-68
2021/09/04 03:26:24;;;;;;;31.05;24.98;;;12.00;99.90;;;;;;2090116;28;20398;-68
2021/09/04 03:27:26;;;;;;;28.98;24.20;;;12.00;99.90;;;;;;2089316;28;20021;-68
2021/09/04 03:28:27;;;;;;;28.88;23.23;;;12.00;99.90;;;;;;2090108;28;20013;-68
2021/09/04 03:29:30;;;;;;;29.08;23.55;;;12.00;99.90;;;;;;2090100;28;20025;-69
2021/09/04 03:30:31;;;;;;;30.10;24.15;;;12.00;99.90;;;;;;2080663;28;20053;-69
2021/09/04 03:31:31;;;;;;;28.83;23.75;;;12.00;99.90;;;;;;2072840;28;20057;-69
2021/09/04 03:32:33;;;;;;;30.95;23.67;;;12.00;99.90;;;;;;2080908;28;20028;-68
2021/09/04 03:33:33;;;;;;;32.83;24.38;;;12.00;99.90;;;;;;2080999;28;20048;-69
2021/09/04 03:34:35;;;;;;;28.85;24.10;;;12.00;99.90;;;;;;2089602;28;20036;-69
2021/09/04 03:35:35;;;;;;;29.45;24.00;;;12.00;99.90;;;;;;2080831;28;20037;-69
2021/09/04 03:36:36;;;;;;;31.00;24.35;;;11.90;99.90;;;;;;2080886;28;20061;-69
2021/09/04 03:37:39;;;;;;;29.85;24.48;;;11.90;99.90;;;;;;2089143;28;20571;-69
2021/09/04 03:38:40;;;;;;;30.52;24.15;;;11.90;99.90;;;;;;2089364;28;20524;-68
2021/09/04 03:39:41;;;;;;;30.05;23.80;;;11.90;99.90;;;;;;2080720;28;20031;-69
2021/09/04 03:40:42;;;;;;;27.67;22.63;;;11.90;99.90;;;;;;2080574;28;20541;-69
2021/09/04 03:41:44;;;;;;;28.77;23.55;;;11.90;99.90;;;;;;2089501;28;20036;-69
2021/09/04 03:42:45;;;;;;;32.90;24.92;;;11.90;99.90;;;;;;2089472;28;20036;-69
2021/09/04 03:43:46;;;;;;;29.05;23.45;;;11.90;99.90;;;;;;2089538;28;20036;-68
2021/09/04 03:44:46;;;;;;;31.10;24.75;;;11.90;99.90;;;;;;2089501;28;20083;-69
2021/09/04 03:45:48;;;;;;;30.55;24.02;;;11.90;99.90;;;;;;2089531;28;20021;-69
2021/09/04 03:46:49;;;;;;;30.20;24.15;;;11.80;99.90;;;;;;2088899;28;20017;-69
2021/09/04 03:47:50;;;;;;;27.70;23.02;;;11.80;99.90;;;;;;2089586;28;20171;-69
2021/09/04 03:48:51;;;;;;;26.80;22.38;;;11.80;99.90;;;;;;2080673;28;20025;-68
2021/09/04 03:49:51;;;;;;;30.52;23.80;;;11.80;99.90;;;;;;2072558;28;20104;-69
2021/09/04 03:50:53;;;;;;;28.50;23.50;;;11.80;99.90;;;;;;2080581;28;20028;-69
2021/09/04 03:51:55;;;;;;;29.45;23.77;;;11.80;99.90;;;;;;2089351;28;20033;-69
2021/09/04 03:52:57;;;;;;;29.30;23.00;;;11.80;99.90;;;;;;2089573;28;20773;-69
2021/09/04 03:53:59;;;;;;;29.83;23.63;;;11.80;99.90;;;;;;2089513;28;20108;-69
2021/09/04 03:55:00;;;;;;;28.27;22.60;;;11.80;99.90;;;;;;2089449;28;20096;-69
2021/09/04 03:56:02;;;;;;;29.70;23.13;;;11.70;99.90;;;;;;2089482;28;20028;-68
2021/09/04 03:57:04;;;;;;;29.40;23.40;;;11.70;99.90;;;;;;2088894;28;20477;-68
2021/09/04 03:58:05;;;;;;;26.58;21.98;;;11.70;99.90;;;;;;2089385;28;20053;-69
2021/09/04 03:59:06;;;;;;;27.63;22.83;;;11.80;99.90;;;;;;2089434;28;20032;-68
2021/09/04 04:00:07;;;;;;;29.13;23.15;;;11.70;99.90;;;;;;2079668;28;20033;-68
2021/09/04 04:01:12;;;;;;;28.27;23.50;;;11.70;99.90;;;;;;2080686;28;20041;-68
2021/09/04 04:02:14;;;;;;;28.58;23.40;;;11.70;99.90;;;;;;2080431;28;20034;-68
2021/09/04 04:03:16;;;;;;;29.92;23.75;;;11.70;99.90;;;;;;2080521;28;20033;-68
2021/09/04 04:04:16;;;;;;;30.90;23.80;;;11.70;99.90;;;;;;2089383;28;20119;-68
2021/09/04 04:05:19;;;;;;;29.15;23.90;;;11.70;99.90;;;;;;2089326;28;20029;-68
2021/09/04 04:06:19;;;;;;;28.67;23.95;;;11.70;99.90;;;;;;2089402;28;20029;-68
2021/09/04 04:07:20;;;;;;;31.67;24.40;;;11.60;99.90;;;;;;2089132;28;20025;-68
2021/09/04 04:08:22;;;;;;;30.95;24.02;;;11.60;99.90;;;;;;2089283;28;20469;-68
2021/09/04 04:09:23;;;;;;;31.17;24.73;;;11.60;99.90;;;;;;2080492;28;20025;-68
2021/09/04 04:10:25;;;;;;;30.00;23.70;;;11.60;99.90;;;;;;2071995;28;20108;-68
2021/09/04 04:11:26;;;;;;;30.58;24.48;;;11.60;99.90;;;;;;2080423;28;20040;-68
2021/09/04 04:12:28;;;;;;;32.58;25.17;;;11.60;99.90;;;;;;2089351;28;20031;-68
2021/09/04 04:13:30;;;;;;;29.88;23.75;;;11.60;99.90;;;;;;2089345;28;20174;-67
2021/09/04 04:14:31;;;;;;;30.65;24.20;;;11.60;99.90;;;;;;2089294;28;20371;-68
2021/09/04 04:15:32;;;;;;;28.02;23.10;;;11.60;99.90;;;;;;2089377;28;20107;-68
2021/09/04 04:16:33;;;;;;;30.00;24.13;;;11.50;99.90;;;;;;2080472;28;20029;-67
2021/09/04 04:17:34;;;;;;;28.00;23.05;;;11.50;99.90;;;;;;2080311;28;20087;-67
2021/09/04 04:18:36;;;;;;;29.23;23.27;;;11.50;99.90;;;;;;2089258;28;20029;-67
2021/09/04 04:19:37;;;;;;;28.38;23.20;;;11.50;99.90;;;;;;2089298;28;20021;-68
2021/09/04 04:20:38;;;;;;;30.38;23.30;;;11.50;99.90;;;;;;2089312;28;20059;-67
2021/09/04 04:21:39;;;;;;;28.73;22.73;;;11.50;99.90;;;;;;2089564;28;20017;-68
2021/09/04 04:22:41;;;;;;;27.75;23.15;;;11.50;99.90;;;;;;2080528;28;20029;-68
2021/09/04 04:23:42;;;;;;;27.67;22.70;;;11.50;99.90;;;;;;2080551;28;20232;-68
2021/09/04 04:24:43;;;;;;;29.90;24.00;;;11.50;99.90;;;;;;2089157;28;20053;-68
2021/09/04 04:25:44;;;;;;;28.98;23.23;;;11.50;99.90;;;;;;2089315;28;20032;-68
2021/09/04 04:26:44;;;;;;;29.52;23.48;;;11.50;99.90;;;;;;2088868;28;20460;-67
2021/09/04 04:27:46;;;;;;;26.83;22.27;;;11.50;99.90;;;;;;2089350;28;20032;-67
2021/09/04 04:28:47;;;;;;;30.08;23.02;;;11.50;99.90;;;;;;2089277;28;20452;-68
2021/09/04 04:29:48;;;;;;;27.73;22.88;;;11.50;99.90;;;;;;2089311;28;20021;-68
2021/09/04 04:30:50;;;;;;;28.25;22.80;;;11.50;99.90;;;;;;2088852;28;20025;-68
2021/09/04 04:31:52;;;;;;;27.00;22.65;;;11.50;99.90;;;;;;2089112;28;20059;-68
2021/09/04 04:32:53;;;;;;;29.40;23.23;;;11.50;99.90;;;;;;2089120;28;20482;-68
2021/09/04 04:33:54;;;;;;;27.27;22.58;;;11.50;99.90;;;;;;2089133;28;20052;-68
2021/09/04 04:34:55;;;;;;;27.25;22.27;;;11.50;99.90;;;;;;2089137;28;20060;-68
2021/09/04 04:35:57;;;;;;;29.45;22.83;;;11.50;99.90;;;;;;2089070;28;20028;-68
2021/09/04 04:36:57;;;;;;;29.88;22.98;;;11.50;99.90;;;;;;2088584;28;20041;-68
2021/09/04 04:37:58;;;;;;;28.75;22.35;;;11.50;99.90;;;;;;2089175;28;20063;-68
2021/09/04 04:39:00;;;;;;;26.38;21.95;;;11.50;99.90;;;;;;2089152;28;20027;-68
2021/09/04 04:40:01;;;;;;;28.58;22.45;;;11.50;99.90;;;;;;2089183;28;20029;-68
2021/09/04 04:41:03;;;;;;;27.30;22.20;;;11.50;99.90;;;;;;2079948;28;20544;-68
2021/09/04 04:42:04;;;;;;;29.40;22.65;;;11.50;99.90;;;;;;2080531;28;20021;-68
2021/09/04 04:43:06;;;;;;;30.10;23.40;;;11.50;99.90;;;;;;2089053;28;20450;-68
2021/09/04 04:44:07;;;;;;;28.85;23.80;;;11.50;99.90;;;;;;2080201;28;20104;-68
2021/09/04 04:45:08;;;;;;;30.17;23.52;;;11.50;99.90;;;;;;2080317;28;20781;-68
2021/09/04 04:46:10;;;;;;;28.23;23.75;;;11.50;99.90;;;;;;2080295;28;20018;-68
2021/09/04 04:47:13;;;;;;;28.10;22.98;;;11.60;99.90;;;;;;2088636;28;20041;-68
2021/09/04 04:48:15;;;;;;;29.50;23.15;;;11.50;99.90;;;;;;2089132;28;20766;-68
2021/09/04 04:49:16;;;;;;;31.55;23.85;;;11.60;99.90;;;;;;2088959;28;20037;-68
2021/09/04 04:50:18;;;;;;;30.13;23.35;;;11.60;99.90;;;;;;2088673;28;20514;-68
2021/09/04 04:51:19;;;;;;;28.05;22.45;;;11.60;99.90;;;;;;2088935;28;20036;-68
2021/09/04 04:52:21;;;;;;;29.50;23.08;;;11.60;99.90;;;;;;2080187;28;20082;-68
2021/09/04 04:53:23;;;;;;;29.92;22.73;;;11.60;99.90;;;;;;2080477;28;20541;-68
2021/09/04 04:54:23;;;;;;;28.25;22.70;;;11.60;99.90;;;;;;2089072;28;20162;-67
2021/09/04 04:55:24;;;;;;;28.63;22.85;;;11.60;99.90;;;;;;2089187;28;20056;-68
2021/09/04 04:56:25;;;;;;;29.40;23.13;;;11.60;99.90;;;;;;2089056;28;20056;-67
2021/09/04 04:57:26;;;;;;;28.50;23.30;;;11.60;99.90;;;;;;2079605;28;20030;-68
2021/09/04 04:58:27;;;;;;;30.38;22.77;;;11.60;99.90;;;;;;2071880;28;20399;-67
2021/09/04 04:59:29;;;;;;;27.77;22.38;;;11.60;99.90;;;;;;2080050;28;20124;-67
2021/09/04 05:00:30;;;;;;;32.13;22.58;;;11.60;99.90;;;;;;2079810;28;20029;-68
2021/09/04 05:01:30;;;;;;;27.92;22.85;;;11.60;99.90;;;;;;2088637;28;20037;-68
2021/09/04 05:02:31;;;;;;;27.45;21.88;;;11.70;99.90;;;;;;2089030;28;20112;-68
2021/09/04 05:03:33;;;;;;;28.75;22.67;;;11.70;99.90;;;;;;2080013;28;20041;-67
2021/09/04 05:04:34;;;;;;;27.17;22.20;;;11.70;99.90;;;;;;2080227;28;20521;-67
2021/09/04 05:05:36;;;;;;;25.38;21.38;;;11.80;99.90;;;;;;2080189;28;20486;-67
2021/09/04 05:06:37;;;;;;;28.58;22.48;;;11.80;99.90;;;;;;2088912;28;20052;-67
2021/09/04 05:07:38;;;;;;;28.52;21.27;;;11.90;99.90;;;;;;2088401;28;20025;-68
2021/09/04 05:08:40;;;;;;;29.55;21.92;;;12.00;99.90;;;;;;2088886;28;20155;-69
2021/09/04 05:09:41;;;;;;;25.60;20.27;;;12.20;99.90;;;;;;2089001;28;20482;-68
2021/09/04 05:10:41;;;;;;;26.77;20.80;;;12.30;99.90;;;;;;2088699;28;20021;-67
2021/09/04 05:11:44;;;;;;;26.50;20.15;;;12.50;99.90;;;;;;2088823;28;20036;-68